Time;durP1;ratioP1;P1;durP2;ratioP2;P2;SDS_P1;SDS_P2;PMS_P1;PMS_P2;Temp;Humidity;BMP_temperature;BMP_pressure;BME280_temperature;BME280_humidity;BME280_pressure;Samples;Min_cycle;Max_cycle;Signal;HPM_P1;HPM_P2
2023/05/26 00:01:58;;;;;;;7.95;2.40;;;;;16.90;102814.00;;;;5090503;28;20194;-79
2023/05/26 00:04:25;;;;;;;7.28;1.85;;;;;16.80;102815.00;;;;5089278;28;20206;-78
2023/05/26 00:06:54;;;;;;;11.43;2.83;;;;;16.80;102812.00;;;;5089096;28;20225;-78
2023/05/26 00:09:23;;;;;;;10.60;2.92;;;;;16.80;102816.00;;;;5088261;28;20248;-78
2023/05/26 00:11:52;;;;;;;9.73;1.98;;;;;16.80;102806.00;;;;5088715;28;20194;-77
2023/05/26 00:14:19;;;;;;;6.95;1.50;;;;;16.80;102817.00;;;;5077556;28;20203;-78
2023/05/26 00:16:47;;;;;;;10.13;2.35;;;;;16.80;102810.00;;;;5089180;28;20202;-78
2023/05/26 00:19:17;;;;;;;8.98;2.50;;;;;16.70;102822.00;;;;5088940;28;20194;-78
2023/05/26 00:21:44;;;;;;;11.23;1.95;;;;;16.70;102819.00;;;;5090255;28;20206;-78
2023/05/26 00:24:12;;;;;;;9.52;2.53;;;;;16.70;102816.00;;;;5088993;28;20194;-78
2023/05/26 00:26:39;;;;;;;4.05;1.55;;;;;16.60;102814.00;;;;5088540;28;20226;-78
2023/05/26 00:29:08;;;;;;;9.57;2.03;;;;;16.60;102814.00;;;;5088083;28;20202;-78
2023/05/26 00:31:35;;;;;;;11.48;3.13;;;;;16.60;102812.00;;;;5087385;28;20208;-78
2023/05/26 00:34:02;;;;;;;4.63;1.63;;;;;16.60;102811.00;;;;5087034;28;20194;-78
2023/05/26 00:36:30;;;;;;;8.43;2.42;;;;;16.60;102818.00;;;;5087038;28;20301;-79
2023/05/26 00:38:57;;;;;;;11.65;2.22;;;;;16.50;102815.00;;;;5088197;28;20719;-78
2023/05/26 00:41:25;;;;;;;8.95;1.80;;;;;16.50;102818.00;;;;5087962;28;20205;-78
2023/05/26 00:43:52;;;;;;;11.00;2.38;;;;;16.50;102824.00;;;;5083839;28;20198;-78
2023/05/26 00:46:21;;;;;;;7.65;1.90;;;;;16.40;102818.00;;;;5088010;28;20233;-78
2023/05/26 00:48:48;;;;;;;9.23;3.10;;;;;16.40;102825.00;;;;5088584;28;20216;-78
2023/05/26 00:51:16;;;;;;;7.72;1.65;;;;;16.40;102819.00;;;;5088094;28;20579;-78
2023/05/26 00:53:44;;;;;;;14.02;2.38;;;;;16.40;102823.00;;;;5087780;28;20479;-78
2023/05/26 00:56:14;;;;;;;13.90;3.25;;;;;16.30;102829.00;;;;5088224;28;20656;-78
2023/05/26 00:58:41;;;;;;;10.10;2.33;;;;;16.30;102820.00;;;;5086254;28;20194;-78
2023/05/26 01:01:09;;;;;;;10.07;2.65;;;;;16.30;102822.00;;;;5086303;28;20195;-78
2023/05/26 01:03:38;;;;;;;11.10;3.10;;;;;16.20;102828.00;;;;5085995;28;20206;-78
2023/05/26 01:06:06;;;;;;;10.07;2.65;;;;;16.20;102822.00;;;;5088196;28;20226;-78
2023/05/26 01:08:33;;;;;;;14.63;2.45;;;;;16.20;102811.00;;;;5085429;28;20274;-78
2023/05/26 01:11:07;;;;;;;7.65;1.95;;;;;16.10;102814.00;;;;5088584;28;20217;-78
2023/05/26 01:13:49;;;;;;;8.77;2.22;;;;;16.10;102809.00;;;;5085823;28;20203;-78
2023/05/26 01:16:21;;;;;;;8.70;2.17;;;;;16.10;102811.00;;;;5087045;28;20194;-78
2023/05/26 01:18:58;;;;;;;10.27;2.38;;;;;16.00;102808.00;;;;5086973;28;20666;-78
2023/05/26 01:21:29;;;;;;;19.83;3.00;;;;;16.00;102821.00;;;;5086267;28;20284;-78
2023/05/26 01:24:12;;;;;;;10.25;2.03;;;;;16.00;102815.00;;;;5086714;28;20197;-78
2023/05/26 01:27:00;;;;;;;9.38;1.77;;;;;16.00;102818.00;;;;5087655;28;20229;-78
2023/05/26 01:29:30;;;;;;;12.98;2.30;;;;;16.00;102814.00;;;;5083086;28;20194;-78
2023/05/26 01:32:07;;;;;;;8.05;2.50;;;;;15.90;102830.00;;;;5085601;28;20275;-78
2023/05/26 01:34:34;;;;;;;7.80;2.28;;;;;16.00;102824.00;;;;5079703;28;20197;-77
2023/05/26 01:37:02;;;;;;;15.38;2.53;;;;;15.90;102823.00;;;;5087865;28;20214;-78
2023/05/26 01:39:29;;;;;;;9.35;2.97;;;;;15.90;102822.00;;;;5087690;28;20663;-78
2023/05/26 01:42:08;;;;;;;7.80;2.42;;;;;15.90;102821.00;;;;5085422;28;20360;-78
2023/05/26 01:44:44;;;;;;;7.20;2.22;;;;;15.80;102817.00;;;;5076193;28;20594;-79
2023/05/26 01:47:14;;;;;;;9.98;2.60;;;;;15.90;102829.00;;;;5087123;28;20226;-78
2023/05/26 01:49:43;;;;;;;12.15;2.92;;;;;15.80;102831.00;;;;5077872;28;20215;-78
2023/05/26 01:52:13;;;;;;;8.82;2.40;;;;;15.80;102833.00;;;;5082560;28;20194;-78
2023/05/26 01:54:46;;;;;;;8.93;2.03;;;;;15.80;102834.00;;;;5085949;28;20550;-78
2023/05/26 01:57:16;;;;;;;8.13;2.70;;;;;15.80;102831.00;;;;5086260;28;20197;-79
2023/05/26 01:59:45;;;;;;;11.82;2.88;;;;;15.70;102834.00;;;;5086122;28;20198;-79
2023/05/26 02:02:12;;;;;;;13.70;3.15;;;;;15.70;102839.00;;;;5087875;28;20218;-78
2023/05/26 02:04:39;;;;;;;6.93;2.20;;;;;15.70;102844.00;;;;5086787;28;20205;-78
2023/05/26 02:07:07;;;;;;;10.05;2.28;;;;;15.70;102847.00;;;;5086673;28;20726;-78
2023/05/26 02:09:35;;;;;;;11.85;2.42;;;;;15.70;102847.00;;;;5088465;28;20664;-78
2023/05/26 02:12:02;;;;;;;6.57;1.60;;;;;15.70;102851.00;;;;5080809;28;20205;-78
2023/05/26 02:14:30;;;;;;;12.18;2.30;;;;;15.70;102847.00;;;;5087976;28;20190;-78
2023/05/26 02:16:59;;;;;;;8.35;2.22;;;;;15.60;102842.00;;;;5086986;28;20196;-78
2023/05/26 02:19:26;;;;;;;8.05;2.03;;;;;15.60;102849.00;;;;5087703;28;20225;-78
2023/05/26 02:21:54;;;;;;;9.63;2.03;;;;;15.60;102846.00;;;;5088210;28;20212;-78
2023/05/26 02:24:23;;;;;;;8.23;2.13;;;;;15.60;102839.00;;;;5087794;28;20205;-78
2023/05/26 02:26:50;;;;;;;6.85;1.77;;;;;15.60;102850.00;;;;5085695;28;20598;-78
2023/05/26 02:29:17;;;;;;;7.45;2.20;;;;;15.60;102848.00;;;;5087401;28;20574;-78
2023/05/26 02:31:45;;;;;;;9.70;2.15;;;;;15.50;102844.00;;;;5086071;28;20597;-78
2023/05/26 02:34:13;;;;;;;17.00;2.08;;;;;15.50;102851.00;;;;5090656;28;20548;-79
2023/05/26 02:36:41;;;;;;;11.77;2.42;;;;;15.50;102843.00;;;;5090579;28;20203;-77
2023/05/26 02:39:08;;;;;;;9.05;1.85;;;;;15.50;102852.00;;;;5091335;28;20202;-78
2023/05/26 02:41:36;;;;;;;10.70;2.40;;;;;15.50;102859.00;;;;5090536;28;20304;-78
2023/05/26 02:44:03;;;;;;;9.20;2.00;;;;;15.50;102851.00;;;;5092208;28;20202;-78
2023/05/26 02:46:30;;;;;;;12.68;2.08;;;;;15.50;102858.00;;;;5090849;28;20233;-78
2023/05/26 02:49:00;;;;;;;8.65;2.08;;;;;15.50;102855.00;;;;5087497;28;20223;-78
2023/05/26 02:51:28;;;;;;;8.75;2.10;;;;;15.40;102855.00;;;;5082810;28;20206;-78
2023/05/26 02:53:56;;;;;;;10.23;2.00;;;;;15.50;102862.00;;;;5091130;28;20206;-78
2023/05/26 02:56:23;;;;;;;8.02;1.88;;;;;15.40;102848.00;;;;5074760;28;20195;-78
2023/05/26 02:58:50;;;;;;;10.18;2.45;;;;;15.40;102857.00;;;;5087476;28;20194;-78
2023/05/26 03:01:17;;;;;;;11.98;2.63;;;;;15.40;102855.00;;;;5090792;28;20393;-78
2023/05/26 03:03:45;;;;;;;14.88;3.10;;;;;15.40;102853.00;;;;5091251;28;20210;-77
2023/05/26 03:06:12;;;;;;;9.02;2.20;;;;;15.40;102852.00;;;;5088986;28;20222;-78
2023/05/26 03:08:41;;;;;;;10.52;2.90;;;;;15.40;102858.00;;;;5090841;28;20194;-78
2023/05/26 03:11:08;;;;;;;11.15;2.65;;;;;15.40;102854.00;;;;5090834;28;20211;-78
2023/05/26 03:13:35;;;;;;;8.68;2.30;;;;;15.40;102861.00;;;;5091377;28;20198;-78
2023/05/26 03:16:02;;;;;;;9.23;2.20;;;;;15.40;102860.00;;;;5090726;28;20222;-79
2023/05/26 03:18:30;;;;;;;11.90;2.75;;;;;15.30;102855.00;;;;5089935;28;20218;-78
2023/05/26 03:20:58;;;;;;;12.63;2.60;;;;;15.40;102855.00;;;;5091261;28;20271;-78
2023/05/26 03:23:26;;;;;;;6.93;2.08;;;;;15.30;102853.00;;;;5090549;28;20255;-78
2023/05/26 03:25:54;;;;;;;13.20;2.60;;;;;15.30;102848.00;;;;5090623;28;20190;-78
2023/05/26 03:28:21;;;;;;;9.77;3.00;;;;;15.30;102853.00;;;;5089352;28;20232;-78
2023/05/26 03:30:49;;;;;;;8.98;2.17;;;;;15.30;102855.00;;;;5090443;28;20198;-78
2023/05/26 03:33:16;;;;;;;12.18;2.65;;;;;15.30;102853.00;;;;5090456;28;20245;-78
2023/05/26 03:35:45;;;;;;;9.85;2.70;;;;;15.30;102859.00;;;;5089426;28;20293;-78
2023/05/26 03:38:12;;;;;;;10.15;2.55;;;;;15.30;102862.00;;;;5089530;28;20198;-78
2023/05/26 03:40:40;;;;;;;10.00;2.35;;;;;15.30;102867.00;;;;5091051;28;20224;-78
2023/05/26 03:43:08;;;;;;;7.28;2.22;;;;;15.30;102868.00;;;;5090409;28;20210;-77
2023/05/26 03:45:36;;;;;;;7.28;2.55;;;;;15.30;102872.00;;;;5090867;28;20198;-78
2023/05/26 03:48:03;;;;;;;7.07;2.67;;;;;15.30;102878.00;;;;5089378;28;20218;-78
2023/05/26 03:50:30;;;;;;;10.38;2.70;;;;;15.20;102871.00;;;;5074516;28;20298;-78
2023/05/26 03:52:58;;;;;;;9.63;2.92;;;;;15.20;102871.00;;;;5089313;28;20209;-78
2023/05/26 03:55:25;;;;;;;8.02;2.92;;;;;15.20;102866.00;;;;5081830;28;20206;-78
2023/05/26 03:57:52;;;;;;;13.32;3.35;;;;;15.20;102866.00;;;;5073789;28;20203;-78
2023/05/26 04:00:21;;;;;;;11.93;2.63;;;;;15.20;102871.00;;;;5090563;28;20213;-78
2023/05/26 04:02:49;;;;;;;8.23;2.30;;;;;15.20;102877.00;;;;5090321;28;20198;-78
2023/05/26 04:05:16;;;;;;;8.63;2.45;;;;;15.20;102872.00;;;;5086695;28;20202;-78
2023/05/26 04:07:46;;;;;;;11.23;2.67;;;;;15.20;102865.00;;;;5088072;28;20233;-78
2023/05/26 04:10:13;;;;;;;8.35;2.42;;;;;15.20;102870.00;;;;5090559;28;20202;-78
2023/05/26 04:12:40;;;;;;;10.77;3.15;;;;;15.20;102876.00;;;;5089449;28;20202;-78
2023/05/26 04:15:09;;;;;;;9.50;2.00;;;;;15.20;102877.00;;;;5089224;28;20581;-78
2023/05/26 04:17:38;;;;;;;9.60;1.63;;;;;15.20;102877.00;;;;5087407;28;20198;-78
2023/05/26 04:20:06;;;;;;;10.40;2.40;;;;;15.20;102878.00;;;;5088771;28;20210;-78
2023/05/26 04:22:34;;;;;;;10.10;2.42;;;;;15.20;102878.00;;;;5088429;28;20201;-79
2023/05/26 04:25:03;;;;;;;9.35;1.83;;;;;15.20;102882.00;;;;5088396;28;20206;-78
2023/05/26 04:27:30;;;;;;;7.05;2.30;;;;;15.20;102887.00;;;;5088083;28;20236;-78
2023/05/26 04:29:58;;;;;;;6.72;2.40;;;;;15.20;102888.00;;;;5081984;28;20549;-78
2023/05/26 04:32:26;;;;;;;9.60;2.95;;;;;15.20;102891.00;;;;5084742;28;20230;-78
2023/05/26 04:34:55;;;;;;;10.50;3.13;;;;;15.20;102890.00;;;;5088686;28;20210;-78
2023/05/26 04:37:22;;;;;;;8.70;2.40;;;;;15.30;102891.00;;;;5088678;28;20206;-78
2023/05/26 04:39:49;;;;;;;9.30;2.83;;;;;15.30;102887.00;;;;5084961;28;20776;-78
2023/05/26 04:42:18;;;;;;;12.98;2.50;;;;;15.30;102885.00;;;;5083350;28;20191;-78
2023/05/26 04:44:46;;;;;;;7.97;2.20;;;;;15.30;102888.00;;;;5068950;28;20199;-78
2023/05/26 04:47:13;;;;;;;8.35;2.60;;;;;15.30;102902.00;;;;5067834;28;20223;-78
2023/05/26 04:49:42;;;;;;;8.38;2.70;;;;;15.40;102905.00;;;;5084590;28;20226;-78
2023/05/26 04:52:10;;;;;;;9.60;2.88;;;;;15.40;102906.00;;;;5086534;28;20202;-78
2023/05/26 04:54:40;;;;;;;7.85;2.20;;;;;15.40;102912.00;;;;5087877;28;20214;-79
2023/05/26 04:57:08;;;;;;;12.00;2.35;;;;;15.40;102909.00;;;;5088346;28;20248;-79
2023/05/26 04:59:37;;;;;;;6.80;1.88;;;;;15.40;102916.00;;;;5087526;28;20252;-78
2023/05/26 05:02:05;;;;;;;11.80;2.60;;;;;15.50;102910.00;;;;5086819;28;20201;-78
2023/05/26 05:04:33;;;;;;;9.40;2.22;;;;;15.50;102910.00;;;;5084801;28;20233;-78
2023/05/26 05:07:00;;;;;;;8.57;2.17;;;;;15.50;102914.00;;;;5086695;28;20233;-78
2023/05/26 05:09:28;;;;;;;10.02;2.25;;;;;15.50;102917.00;;;;5087932;28;20202;-78
2023/05/26 05:11:56;;;;;;;12.00;2.50;;;;;15.60;102920.00;;;;5088001;28;20202;-78
2023/05/26 05:14:24;;;;;;;10.00;2.78;;;;;15.60;102925.00;;;;5085138;28;20194;-79
2023/05/26 05:16:52;;;;;;;11.18;2.03;;;;;15.70;102922.00;;;;5081581;28;20728;-78
2023/05/26 05:19:19;;;;;;;11.65;2.55;;;;;15.70;102928.00;;;;5083036;28;20202;-78
2023/05/26 05:21:46;;;;;;;10.57;2.78;;;;;15.70;102925.00;;;;5085529;28;20202;-78
2023/05/26 05:24:14;;;;;;;11.02;2.35;;;;;15.80;102929.00;;;;5083124;28;20203;-78
2023/05/26 05:26:42;;;;;;;9.60;2.17;;;;;15.80;102923.00;;;;5083412;28;20213;-78
2023/05/26 05:29:10;;;;;;;11.38;3.03;;;;;15.80;102928.00;;;;5085351;28;20209;-77
2023/05/26 05:31:38;;;;;;;13.98;2.35;;;;;15.90;102941.00;;;;5082022;28;20243;-78
2023/05/26 05:34:05;;;;;;;9.52;2.70;;;;;15.90;102937.00;;;;5085451;28;20289;-78
2023/05/26 05:36:33;;;;;;;10.02;2.70;;;;;16.00;102942.00;;;;5086463;28;20202;-78
2023/05/26 05:39:00;;;;;;;8.90;2.17;;;;;16.00;102946.00;;;;5085450;28;20202;-78
2023/05/26 05:41:28;;;;;;;9.15;2.20;;;;;16.10;102933.00;;;;5082267;28;20209;-78
2023/05/26 05:43:57;;;;;;;9.55;2.95;;;;;16.10;102944.00;;;;5086466;28;20206;-77
2023/05/26 05:46:24;;;;;;;12.10;2.00;;;;;16.20;102949.00;;;;5086047;28;20208;-78
2023/05/26 05:48:52;;;;;;;15.23;2.88;;;;;16.20;102954.00;;;;5081617;28;20219;-77
2023/05/26 05:51:19;;;;;;;11.95;2.85;;;;;16.30;102944.00;;;;5075116;28;20190;-78
2023/05/26 05:53:46;;;;;;;10.77;2.70;;;;;16.30;102946.00;;;;5084300;28;20727;-77
2023/05/26 05:56:14;;;;;;;16.15;2.97;;;;;16.40;102946.00;;;;5088081;28;20213;-78
2023/05/26 05:58:41;;;;;;;4.60;1.90;;;;;16.40;102951.00;;;;5085263;28;20210;-78
2023/05/26 06:01:10;;;;;;;9.55;1.90;;;;;16.50;102942.00;;;;5084424;28;20190;-79
2023/05/26 06:03:37;;;;;;;11.30;2.92;;;;;16.50;102947.00;;;;5083308;28;20214;-77
2023/05/26 06:06:05;;;;;;;9.25;2.22;;;;;16.60;102948.00;;;;5082978;28;20186;-77
2023/05/26 06:08:32;;;;;;;9.07;2.22;;;;;16.60;102949.00;;;;5088772;28;20593;-77
2023/05/26 06:10:59;;;;;;;9.57;2.10;;;;;16.70;102949.00;;;;5089336;28;20563;-77
2023/05/26 06:13:27;;;;;;;11.82;3.08;;;;;16.80;102950.00;;;;5087725;28;20656;-77
2023/05/26 06:15:54;;;;;;;8.68;1.92;;;;;16.80;102952.00;;;;5089552;28;20567;-79
2023/05/26 06:18:22;;;;;;;14.20;2.33;;;;;16.80;102953.00;;;;5089055;28;20194;-79
2023/05/26 06:20:50;;;;;;;14.35;3.10;;;;;16.90;102950.00;;;;5091643;28;20586;-79
2023/05/26 06:23:18;;;;;;;10.02;3.05;;;;;17.00;102945.00;;;;5090659;28;20198;-79
2023/05/26 06:25:45;;;;;;;8.27;2.53;;;;;17.00;102952.00;;;;5092167;28;20207;-80
2023/05/26 06:28:12;;;;;;;10.60;2.17;;;;;17.10;102965.00;;;;5090638;28;20225;-81
2023/05/26 06:30:40;;;;;;;7.68;2.20;;;;;17.10;102956.00;;;;5080502;28;20194;-80
2023/05/26 06:33:07;;;;;;;10.73;2.47;;;;;17.20;102961.00;;;;5089317;28;20575;-80
2023/05/26 06:35:36;;;;;;;9.10;2.40;;;;;17.20;102967.00;;;;5091208;28;20206;-80
2023/05/26 06:38:03;;;;;;;13.75;2.20;;;;;17.30;102967.00;;;;5091339;28;20206;-80
2023/05/26 06:40:30;;;;;;;7.28;2.35;;;;;17.30;102960.00;;;;5091016;28;20206;-80
2023/05/26 06:42:57;;;;;;;7.95;2.67;;;;;17.40;102976.00;;;;5091753;28;20198;-80
2023/05/26 06:45:25;;;;;;;11.05;2.78;;;;;17.40;102972.00;;;;5090408;28;20205;-81
2023/05/26 06:47:52;;;;;;;10.63;2.58;;;;;17.50;102970.00;;;;5090064;28;20218;-81
2023/05/26 06:50:19;;;;;;;11.73;2.63;;;;;17.50;102969.00;;;;5091095;28;20222;-80
2023/05/26 06:52:48;;;;;;;8.55;2.28;;;;;17.50;102972.00;;;;5090437;28;20201;-79
2023/05/26 06:55:16;;;;;;;9.93;1.65;;;;;17.50;102975.00;;;;5089600;28;20688;-79
2023/05/26 06:57:43;;;;;;;4.65;1.42;;;;;17.60;102979.00;;;;5091314;28;20651;-79
2023/05/26 07:00:12;;;;;;;8.55;2.05;;;;;17.60;102977.00;;;;5091008;28;20557;-80
2023/05/26 07:02:40;;;;;;;10.75;2.47;;;;;17.70;102982.00;;;;5089394;28;20201;-81
2023/05/26 07:05:08;;;;;;;9.65;2.05;;;;;17.80;102980.00;;;;5073263;28;20661;-80
2023/05/26 07:07:35;;;;;;;6.68;2.10;;;;;17.90;102981.00;;;;5090709;28;20218;-80
2023/05/26 07:10:05;;;;;;;18.33;2.78;;;;;17.90;102988.00;;;;5090529;28;20213;-79
2023/05/26 07:12:32;;;;;;;10.00;2.50;;;;;18.10;102978.00;;;;5091415;28;20213;-80
2023/05/26 07:14:59;;;;;;;10.55;2.35;;;;;18.10;102988.00;;;;5091893;28;20198;-80
2023/05/26 07:17:27;;;;;;;8.70;2.55;;;;;18.20;102991.00;;;;5085404;28;20189;-79
2023/05/26 07:19:54;;;;;;;8.05;2.67;;;;;18.30;102982.00;;;;5088715;28;20209;-80
2023/05/26 07:22:21;;;;;;;9.25;2.53;;;;;18.30;102984.00;;;;5090849;28;20207;-77
2023/05/26 07:24:48;;;;;;;7.03;2.42;;;;;18.40;102986.00;;;;5087463;28;20210;-77
2023/05/26 07:27:17;;;;;;;8.38;2.13;;;;;18.50;102981.00;;;;5087861;28;20193;-78
2023/05/26 07:29:44;;;;;;;8.05;2.58;;;;;18.50;102977.00;;;;5090560;28;20194;-78
2023/05/26 07:32:11;;;;;;;7.93;2.78;;;;;18.60;102986.00;;;;5086207;28;20224;-77
2023/05/26 07:34:39;;;;;;;8.70;2.30;;;;;18.60;102986.00;;;;5087442;28;20194;-80
2023/05/26 07:37:06;;;;;;;13.07;2.28;;;;;18.70;102986.00;;;;5088568;28;20217;-79
2023/05/26 07:39:33;;;;;;;9.98;2.25;;;;;18.70;102978.00;;;;5088894;28;20674;-79
2023/05/26 07:42:01;;;;;;;14.35;3.05;;;;;18.80;102979.00;;;;5085798;28;20504;-78
2023/05/26 07:44:29;;;;;;;6.80;2.10;;;;;18.80;102974.00;;;;5081201;28;20199;-76
2023/05/26 07:46:57;;;;;;;9.50;2.58;;;;;18.90;102972.00;;;;5089739;28;20202;-77
2023/05/26 07:49:24;;;;;;;12.00;2.28;;;;;19.00;102969.00;;;;5084261;28;20237;-78
2023/05/26 07:51:52;;;;;;;10.07;2.47;;;;;19.10;102963.00;;;;5088263;28;20210;-79
2023/05/26 07:54:19;;;;;;;14.38;2.65;;;;;19.20;102964.00;;;;5089373;28;20205;-79
2023/05/26 07:56:46;;;;;;;7.13;2.40;;;;;19.30;102965.00;;;;5086632;28;20209;-79
2023/05/26 07:59:14;;;;;;;9.98;2.65;;;;;19.40;102966.00;;;;5088709;28;20190;-80
2023/05/26 08:01:43;;;;;;;6.55;2.13;;;;;19.40;102969.00;;;;5082415;28;20194;-78
2023/05/26 08:04:10;;;;;;;10.15;2.17;;;;;19.60;102971.00;;;;5090524;28;20545;-79
2023/05/26 08:06:37;;;;;;;14.25;2.47;;;;;19.70;102962.00;;;;5087417;28;20206;-78
2023/05/26 08:09:05;;;;;;;10.00;2.20;;;;;19.80;102967.00;;;;5086653;28;20303;-76
2023/05/26 08:11:32;;;;;;;9.43;2.17;;;;;19.90;102960.00;;;;5087947;28;20688;-77
2023/05/26 08:13:59;;;;;;;5.75;2.08;;;;;20.00;102969.00;;;;5085654;28;20190;-76
2023/05/26 08:16:27;;;;;;;9.38;2.08;;;;;20.10;102962.00;;;;5089002;28;20491;-77
2023/05/26 08:18:55;;;;;;;11.98;2.63;;;;;20.20;102958.00;;;;5087278;28;20205;-79
2023/05/26 08:21:23;;;;;;;8.73;2.25;;;;;20.30;102956.00;;;;5089405;28;20198;-80
2023/05/26 08:23:50;;;;;;;9.75;2.38;;;;;20.40;102965.00;;;;5090010;28;20194;-80
2023/05/26 08:26:17;;;;;;;6.22;2.22;;;;;20.50;102960.00;;;;5089217;28;20202;-79
2023/05/26 08:28:44;;;;;;;6.97;2.17;;;;;20.60;102961.00;;;;5089322;28;20218;-79
2023/05/26 08:31:12;;;;;;;7.72;2.40;;;;;20.70;102962.00;;;;5084879;28;20553;-79
2023/05/26 08:33:39;;;;;;;10.13;2.50;;;;;20.80;102961.00;;;;5085410;28;20933;-80
2023/05/26 08:36:08;;;;;;;6.97;1.98;;;;;20.90;102964.00;;;;5089342;28;20204;-80
2023/05/26 08:38:36;;;;;;;8.77;2.30;;;;;21.00;102967.00;;;;5087516;28;20796;-78
2023/05/26 08:41:06;;;;;;;5.70;2.03;;;;;21.10;102973.00;;;;5088760;28;20198;-79
2023/05/26 08:43:37;;;;;;;5.43;1.77;;;;;21.20;102974.00;;;;5080960;28;20656;-79
2023/05/26 08:46:05;;;;;;;8.90;2.17;;;;;21.30;102971.00;;;;5088292;28;20206;-79
2023/05/26 08:48:33;;;;;;;8.05;1.80;;;;;21.40;102975.00;;;;5087191;28;20234;-80
2023/05/26 08:51:03;;;;;;;6.75;2.40;;;;;21.40;102974.00;;;;5082002;28;20210;-79
2023/05/26 08:53:31;;;;;;;5.68;1.80;;;;;21.50;102964.00;;;;5087305;28;20201;-78
2023/05/26 08:56:01;;;;;;;8.27;2.35;;;;;21.60;102978.00;;;;5075221;28;20202;-78
2023/05/26 08:58:30;;;;;;;7.50;2.17;;;;;21.70;102969.00;;;;5086818;28;20194;-78
2023/05/26 09:00:58;;;;;;;7.32;1.73;;;;;21.80;102961.00;;;;5088111;28;20205;-78
2023/05/26 09:03:26;;;;;;;6.38;1.80;;;;;22.00;102963.00;;;;5085978;28;20194;-78
2023/05/26 09:05:53;;;;;;;8.98;1.73;;;;;22.10;102969.00;;;;5087178;28;20195;-78
2023/05/26 09:08:20;;;;;;;6.53;1.92;;;;;22.10;102964.00;;;;5084547;28;20214;-78
2023/05/26 09:10:49;;;;;;;7.60;1.83;;;;;22.20;102964.00;;;;5088662;28;20201;-79
2023/05/26 09:13:18;;;;;;;9.57;2.25;;;;;22.30;102961.00;;;;5084935;28;20190;-78
2023/05/26 09:15:51;;;;;;;5.60;1.38;;;;;22.40;102961.00;;;;5086492;28;20243;-78
2023/05/26 09:18:19;;;;;;;9.80;2.45;;;;;22.60;102967.00;;;;5087076;28;20213;-78
2023/05/26 09:20:49;;;;;;;6.50;2.00;;;;;22.60;102961.00;;;;5088123;28;20293;-78
2023/05/26 09:23:18;;;;;;;11.50;2.50;;;;;22.70;102958.00;;;;5087158;28;20194;-78
2023/05/26 09:25:46;;;;;;;5.63;2.63;;;;;22.80;102966.00;;;;5087775;28;20199;-79
2023/05/26 09:28:16;;;;;;;9.13;2.28;;;;;22.90;102966.00;;;;5087083;28;20232;-79
2023/05/26 09:30:45;;;;;;;6.63;1.63;;;;;23.00;102968.00;;;;5089209;28;20206;-79
2023/05/26 09:33:14;;;;;;;8.73;2.10;;;;;23.10;102971.00;;;;5085522;28;20232;-78
2023/05/26 09:35:44;;;;;;;6.90;1.92;;;;;23.20;102963.00;;;;5088315;28;20194;-78
2023/05/26 09:38:12;;;;;;;9.38;1.90;;;;;23.30;102967.00;;;;5087613;28;20663;-78
2023/05/26 09:40:42;;;;;;;8.95;2.50;;;;;23.30;102965.00;;;;5088887;28;20209;-78
2023/05/26 09:43:10;;;;;;;4.95;1.70;;;;;23.50;102977.00;;;;5087753;28;20267;-78
2023/05/26 09:45:40;;;;;;;5.40;1.90;;;;;23.50;102966.00;;;;5088515;28;20198;-79
2023/05/26 09:48:09;;;;;;;7.15;2.25;;;;;23.60;102973.00;;;;5088674;28;20205;-79
2023/05/26 09:50:37;;;;;;;11.98;2.25;;;;;23.70;102966.00;;;;5087122;28;20226;-80
2023/05/26 09:53:08;;;;;;;8.75;2.30;;;;;23.70;102967.00;;;;5088192;28;20194;-79
2023/05/26 09:55:36;;;;;;;6.22;2.30;;;;;23.80;102961.00;;;;5088840;28;20553;-78
2023/05/26 09:58:05;;;;;;;8.35;1.90;;;;;23.80;102960.00;;;;5087207;28;20346;-78
2023/05/26 10:00:34;;;;;;;7.57;2.63;;;;;23.90;102961.00;;;;5088838;28;20660;-78
2023/05/26 10:03:04;;;;;;;7.78;2.65;;;;;24.00;102965.00;;;;5088485;28;20202;-78
2023/05/26 10:05:33;;;;;;;12.32;2.35;;;;;24.00;102964.00;;;;5088375;28;20213;-79
2023/05/26 10:08:01;;;;;;;10.50;2.97;;;;;24.10;102959.00;;;;5075277;28;20194;-78
2023/05/26 10:10:31;;;;;;;3.53;1.50;;;;;24.10;102956.00;;;;5087053;28;20231;-78
2023/05/26 10:12:58;;;;;;;6.25;1.50;;;;;24.20;102962.00;;;;5085634;28;20194;-77
2023/05/26 10:15:26;;;;;;;8.68;2.35;;;;;24.10;102965.00;;;;5083211;28;20286;-78
2023/05/26 10:17:56;;;;;;;6.28;1.90;;;;;24.20;102954.00;;;;5083341;28;20203;-78
2023/05/26 10:20:25;;;;;;;11.15;2.20;;;;;24.20;102961.00;;;;5078997;28;20195;-80
2023/05/26 10:23:01;;;;;;;12.52;3.17;;;;;24.10;102949.00;;;;5080790;28;20194;-80
2023/05/26 10:25:34;;;;;;;8.65;2.67;;;;;24.20;102950.00;;;;5087159;28;20210;-80
2023/05/26 10:28:09;;;;;;;5.93;1.92;;;;;24.20;102953.00;;;;5087555;28;20221;-80
2023/05/26 10:30:40;;;;;;;9.70;2.42;;;;;24.30;102953.00;;;;5087523;28;20229;-80
2023/05/26 10:33:11;;;;;;;6.53;2.35;;;;;24.40;102940.00;;;;5086589;28;20233;-79
2023/05/26 10:35:52;;;;;;;4.25;1.48;;;;;24.40;102945.00;;;;5087620;28;20205;-80
2023/05/26 10:38:20;;;;;;;5.72;2.13;;;;;24.50;102951.00;;;;5087685;28;20202;-80
2023/05/26 10:40:52;;;;;;;5.07;1.92;;;;;24.50;102943.00;;;;5087438;28;20289;-80
2023/05/26 10:43:21;;;;;;;10.05;2.60;;;;;24.60;102946.00;;;;5087144;28;20692;-79
2023/05/26 10:45:52;;;;;;;9.32;2.95;;;;;24.60;102945.00;;;;5088466;28;20202;-81
2023/05/26 10:48:20;;;;;;;5.57;2.20;;;;;24.60;102939.00;;;;5087606;28;20210;-79
2023/05/26 10:51:25;;;;;;;8.55;2.42;;;;;24.50;102949.00;;;;5087754;28;20206;-79
2023/05/26 10:53:56;;;;;;;6.95;2.50;;;;;24.60;102948.00;;;;5026265;28;20208;-79
2023/05/26 10:56:34;;;;;;;6.60;2.13;;;;;24.70;102935.00;;;;5081790;28;20615;-79
2023/05/26 10:59:03;;;;;;;4.63;2.00;;;;;24.70;102944.00;;;;5091490;28;20697;-80
2023/05/26 11:01:32;;;;;;;8.32;2.55;;;;;24.70;102938.00;;;;5090942;28;20193;-80
2023/05/26 11:04:08;;;;;;;6.68;2.28;;;;;24.70;102943.00;;;;5090873;28;20575;-80
2023/05/26 11:06:46;;;;;;;6.38;1.75;;;;;24.70;102944.00;;;;5091124;28;20206;-80
2023/05/26 11:09:14;;;;;;;6.90;2.33;;;;;24.80;102935.00;;;;5091124;28;20229;-79
2023/05/26 11:11:51;;;;;;;10.30;2.47;;;;;24.80;102935.00;;;;5090511;28;20217;-80
2023/05/26 11:14:24;;;;;;;8.15;2.72;;;;;24.80;102937.00;;;;5090660;28;20198;-79
2023/05/26 11:16:51;;;;;;;7.60;2.33;;;;;24.90;102934.00;;;;5090722;28;20198;-80
2023/05/26 11:19:29;;;;;;;9.27;3.35;;;;;24.80;102924.00;;;;5089950;28;20224;-79
2023/05/26 11:21:58;;;;;;;7.25;2.33;;;;;24.90;102919.00;;;;5091232;28;20679;-79
2023/05/26 11:24:26;;;;;;;8.85;2.05;;;;;25.00;102924.00;;;;5090592;28;20575;-79
2023/05/26 11:26:53;;;;;;;6.20;2.35;;;;;25.00;102939.00;;;;5090048;28;20203;-80
2023/05/26 11:29:23;;;;;;;6.00;2.58;;;;;25.00;102930.00;;;;5089380;28;20226;-80
2023/05/26 11:31:52;;;;;;;10.25;3.03;;;;;25.00;102923.00;;;;5089791;28;20737;-80
2023/05/26 11:34:19;;;;;;;5.88;2.17;;;;;25.10;102921.00;;;;5090251;28;20293;-80
2023/05/26 11:36:48;;;;;;;9.25;2.65;;;;;25.10;102924.00;;;;5090120;28;20638;-80
2023/05/26 11:39:17;;;;;;;8.68;2.78;;;;;25.10;102924.00;;;;5089546;28;20469;-79
2023/05/26 11:41:45;;;;;;;12.55;2.53;;;;;25.10;102922.00;;;;5090024;28;20205;-80
2023/05/26 11:44:13;;;;;;;6.03;2.45;;;;;25.10;102917.00;;;;5089700;28;20214;-79
2023/05/26 11:46:42;;;;;;;4.80;1.75;;;;;25.10;102922.00;;;;5090858;28;20194;-80
2023/05/26 11:49:13;;;;;;;5.53;2.30;;;;;25.00;102915.00;;;;5089991;28;20607;-79
2023/05/26 11:51:46;;;;;;;6.65;2.00;;;;;25.00;102911.00;;;;5090397;28;20198;-79
2023/05/26 11:54:16;;;;;;;8.57;2.72;;;;;25.10;102914.00;;;;5089934;28;20268;-80
2023/05/26 11:56:44;;;;;;;5.38;2.67;;;;;25.10;102928.00;;;;5090641;28;20209;-79
2023/05/26 11:59:17;;;;;;;8.15;2.53;;;;;25.00;102922.00;;;;5090583;28;20205;-79
2023/05/26 12:01:45;;;;;;;6.30;2.35;;;;;25.10;102934.00;;;;5090378;28;20198;-80
2023/05/26 12:04:12;;;;;;;8.68;3.08;;;;;25.10;102921.00;;;;5088808;28;20202;-79
2023/05/26 12:06:41;;;;;;;5.95;2.42;;;;;25.10;102923.00;;;;5090201;28;20202;-80
2023/05/26 12:09:21;;;;;;;8.32;2.20;;;;;25.10;102925.00;;;;5090272;28;20313;-79
2023/05/26 12:11:49;;;;;;;10.88;3.00;;;;;25.10;102931.00;;;;5089856;28;21257;-80
2023/05/26 12:14:16;;;;;;;7.63;2.30;;;;;25.10;102916.00;;;;5089904;28;20194;-80